Time;durP1;ratioP1;P1;durP2;ratioP2;P2;SDS_P1;SDS_P2;PMS_P1;PMS_P2;Temp;Humidity;BMP_temperature;BMP_pressure;BME280_temperature;BME280_humidity;BME280_pressure;Samples;Min_cycle;Max_cycle;Signal;HPM_P1;HPM_P2
2024/04/07 00:01:40;;;;;;;10.32;7.00;;;;;;;15.05;100.00;100771.94;5152485;55;1142825;-78
2024/04/07 00:06:46;;;;;;;14.63;7.58;;;;;;;15.09;100.00;100777.34;5055604;56;1142791;-78
2024/04/07 00:11:52;;;;;;;12.27;6.83;;;;;;;15.08;100.00;100766.33;5076994;56;1142991;-77
2024/04/07 00:16:57;;;;;;;13.62;7.33;;;;;;;15.07;100.00;100767.31;5075652;55;1143247;-78
2024/04/07 00:22:03;;;;;;;12.78;6.58;;;;;;;15.06;100.00;100774.95;5074844;56;1143257;-78
2024/04/07 00:27:09;;;;;;;14.03;7.20;;;;;;;15.01;100.00;100785.18;5145354;55;1143226;-78
2024/04/07 00:32:15;;;;;;;10.98;6.78;;;;;;;14.92;100.00;100782.87;5162927;55;1143009;-79
2024/04/07 00:37:21;;;;;;;10.70;6.07;;;;;;;14.93;100.00;100774.41;5127037;55;1142882;-78
2024/04/07 00:42:27;;;;;;;15.87;6.47;;;;;;;14.90;100.00;100766.20;5096726;56;1143058;-78
2024/04/07 00:47:32;;;;;;;10.97;5.80;;;;;;;14.87;100.00;100758.48;5078987;56;1143446;-78
2024/04/07 00:52:40;;;;;;;11.83;6.77;;;;;;;14.84;100.00;100768.56;5159844;55;1143000;-78
2024/04/07 00:57:46;;;;;;;10.57;5.90;;;;;;;14.80;100.00;100753.39;5096306;56;1143095;-78
2024/04/07 01:02:52;;;;;;;10.13;5.67;;;;;;;14.75;100.00;100751.13;5085412;56;1143221;-76
2024/04/07 01:07:57;;;;;;;10.63;5.77;;;;;;;14.77;100.00;100763.82;5162019;55;1143049;-77
2024/04/07 01:13:04;;;;;;;11.47;5.70;;;;;;;14.82;100.00;100757.24;5162824;55;1143052;-78
2024/04/07 01:18:10;;;;;;;11.00;5.97;;;;;;;14.83;100.00;100754.90;5182456;55;1143042;-78
2024/04/07 01:23:18;;;;;;;11.70;5.33;;;;;;;14.76;100.00;100750.16;5117447;55;1142897;-78
2024/04/07 01:28:25;;;;;;;8.90;5.50;;;;;;;14.68;100.00;100757.98;5078098;56;1142926;-79
2024/04/07 01:33:31;;;;;;;8.87;5.57;;;;;;;14.63;100.00;100756.25;5046514;57;1141055;-78
2024/04/07 01:38:36;;;;;;;8.57;5.47;;;;;;;14.56;100.00;100752.94;5025152;56;1140888;-76
2024/04/07 01:43:42;;;;;;;12.07;5.90;;;;;;;14.51;100.00;100738.73;4993738;56;1141061;-78
2024/04/07 01:48:48;;;;;;;15.32;7.20;;;;;;;14.55;100.00;100744.11;5114391;56;1142980;-77
2024/04/07 01:53:54;;;;;;;11.33;6.10;;;;;;;14.55;100.00;100745.93;5164230;55;1142902;-77
2024/04/07 01:59:00;;;;;;;10.57;5.93;;;;;;;14.49;100.00;100750.01;5162365;55;1143059;-78
2024/04/07 02:04:06;;;;;;;12.55;6.75;;;;;;;14.42;100.00;100754.19;5009697;56;1142892;-78
2024/04/07 02:09:11;;;;;;;10.70;6.55;;;;;;;14.39;100.00;100746.44;5182925;56;1143087;-78
2024/04/07 02:14:17;;;;;;;14.47;7.83;;;;;;;14.23;100.00;100747.45;5162832;55;1142939;-78
2024/04/07 02:19:23;;;;;;;12.95;7.33;;;;;;;14.17;100.00;100729.41;5163548;55;1143123;-77
2024/04/07 02:24:29;;;;;;;25.40;12.13;;;;;;;14.14;100.00;100731.00;5183518;55;1143110;-77
2024/04/07 02:29:34;;;;;;;26.52;11.60;;;;;;;14.07;100.00;100733.34;5085712;56;1145125;-78
2024/04/07 02:34:40;;;;;;;24.17;9.90;;;;;;;14.05;100.00;100734.81;5162185;55;1144778;-78
2024/04/07 02:39:46;;;;;;;17.30;7.80;;;;;;;14.07;100.00;100732.02;5183955;56;1142830;-78
2024/04/07 02:50:15;;;;;;;13.73;7.20;;;;;;;14.01;100.00;100724.12;5077531;56;1143121;-77
2024/04/07 02:55:20;;;;;;;20.00;8.50;;;;;;;13.99;100.00;100731.39;5077240;56;1143074;-77
2024/04/07 03:00:26;;;;;;;16.60;9.33;;;;;;;13.93;100.00;100717.29;5094936;55;1142937;-78
2024/04/07 03:05:32;;;;;;;17.47;8.30;;;;;;;13.81;100.00;100716.20;5128997;55;1142972;-77
2024/04/07 03:10:38;;;;;;;21.93;10.33;;;;;;;13.76;100.00;100719.75;5162731;55;1142872;-78
2024/04/07 03:15:43;;;;;;;19.37;9.77;;;;;;;13.80;100.00;100721.17;5173171;55;1145167;-77
2024/04/07 03:20:49;;;;;;;15.37;8.70;;;;;;;13.87;100.00;100725.83;5162305;55;1203069;-78
2024/04/07 03:25:55;;;;;;;21.73;10.80;;;;;;;13.90;100.00;100724.72;5183580;55;1143275;-78
2024/04/07 03:31:03;;;;;;;18.15;9.73;;;;;;;13.89;100.00;100716.39;5097642;55;1145144;-79
2024/04/07 03:36:09;;;;;;;18.92;8.55;;;;;;;13.87;100.00;100711.20;5083421;55;1143171;-78
2024/04/07 03:41:15;;;;;;;16.85;9.58;;;;;;;13.91;100.00;100707.27;4928269;57;1143111;-78
2024/04/07 03:46:21;;;;;;;17.90;9.55;;;;;;;13.89;100.00;100705.27;5163134;55;1143057;-78
2024/04/07 03:51:27;;;;;;;16.32;10.80;;;;;;;13.86;100.00;100699.38;5183645;55;1142937;-77
2024/04/07 03:56:32;;;;;;;15.73;9.53;;;;;;;13.80;100.00;100696.75;5141053;55;1145183;-77
2024/04/07 04:01:39;;;;;;;16.35;8.85;;;;;;;13.81;100.00;100696.27;4993838;57;1142877;-76
2024/04/07 04:06:46;;;;;;;12.87;8.50;;;;;;;13.82;100.00;100699.28;5167994;55;1142941;-78
2024/04/07 04:11:52;;;;;;;14.00;8.10;;;;;;;13.80;100.00;100690.11;5118636;56;1143311;-78
2024/04/07 04:16:58;;;;;;;17.33;10.83;;;;;;;13.77;100.00;100690.86;4994952;57;1143071;-78
2024/04/07 04:22:04;;;;;;;19.07;9.30;;;;;;;13.77;100.00;100696.18;5162341;55;1145290;-78
2024/04/07 04:27:10;;;;;;;14.67;8.23;;;;;;;13.76;100.00;100688.69;5118050;56;1143418;-77
2024/04/07 04:32:15;;;;;;;20.63;9.20;;;;;;;13.75;100.00;100687.00;5077681;56;1143379;-78
2024/04/07 04:37:22;;;;;;;19.33;13.27;;;;;;;13.76;100.00;100685.19;5077858;55;1143100;-79
2024/04/07 04:42:28;;;;;;;16.40;9.30;;;;;;;13.75;100.00;100679.03;5182146;55;1145147;-77
2024/04/07 04:47:35;;;;;;;21.97;12.40;;;;;;;13.71;100.00;100673.17;5161979;55;1142992;-78
2024/04/07 04:52:41;;;;;;;22.50;13.47;;;;;;;13.80;100.00;100687.94;5133979;55;1258181;-77
2024/04/07 04:57:51;;;;;;;15.60;9.80;;;;;;;13.92;100.00;100686.84;5092328;56;1145133;-77
2024/04/07 05:02:57;;;;;;;19.90;10.73;;;;;;;13.97;100.00;100687.29;5140142;55;1143060;-78
2024/04/07 05:08:02;;;;;;;12.50;8.00;;;;;;;13.99;100.00;100690.17;5076313;56;1145538;-77
2024/04/07 05:13:08;;;;;;;15.43;9.47;;;;;;;13.99;100.00;100681.34;5096476;57;1143036;-78
2024/04/07 05:18:15;;;;;;;14.57;7.77;;;;;;;14.07;100.00;100690.80;5175642;55;1143093;-78
2024/04/07 05:23:21;;;;;;;17.67;7.50;;;;;;;14.17;100.00;100697.48;5101677;55;1143802;-78
2024/04/07 05:28:27;;;;;;;13.30;7.57;;;;;;;14.27;100.00;100693.00;5081922;55;1142951;-77
2024/04/07 05:33:33;;;;;;;14.15;7.20;;;;;;;14.33;100.00;100692.47;4999482;57;1143026;-77
2024/04/07 05:38:41;;;;;;;13.25;6.75;;;;;;;14.39;100.00;100690.07;5148654;55;1143282;-77
2024/04/07 05:43:47;;;;;;;16.42;8.13;;;;;;;14.50;100.00;100691.81;5182489;55;1142879;-77
2024/04/07 05:48:52;;;;;;;10.53;6.97;;;;;;;14.60;100.00;100694.45;5119308;55;1142948;-76
2024/04/07 05:53:58;;;;;;;12.03;7.43;;;;;;;14.64;100.00;100690.05;5150506;55;1143039;-77
2024/04/07 05:59:04;;;;;;;16.13;6.80;;;;;;;14.65;100.00;100689.08;5155835;55;1143054;-78
2024/04/07 06:04:09;;;;;;;11.73;7.23;;;;;;;14.69;100.00;100691.78;5172390;55;1142796;-78
2024/04/07 06:09:15;;;;;;;14.65;7.95;;;;;;;14.74;100.00;100691.36;5162076;55;1143152;-76
2024/04/07 06:14:21;;;;;;;13.00;6.80;;;;;;;14.78;100.00;100688.78;5091453;56;1143222;-77
2024/04/07 06:19:26;;;;;;;13.40;8.10;;;;;;;14.85;100.00;100694.36;5181436;55;1143094;-76
2024/04/07 06:24:32;;;;;;;11.28;6.30;;;;;;;14.94;100.00;100698.36;5143166;55;1143080;-78
2024/04/07 06:29:38;;;;;;;11.27;6.20;;;;;;;15.12;100.00;100693.95;5018270;56;1143137;-78
2024/04/07 06:34:44;;;;;;;9.78;6.17;;;;;;;15.29;100.00;100688.37;5098792;55;1142896;-80
2024/04/07 06:39:50;;;;;;;8.28;5.62;;;;;;;15.48;100.00;100685.64;4996202;57;1140866;-79
2024/04/07 06:44:56;;;;;;;8.03;4.70;;;;;;;15.71;100.00;100681.31;5083574;56;1140875;-81
2024/04/07 06:50:02;;;;;;;8.00;4.97;;;;;;;15.99;100.00;100671.46;5164119;55;1140960;-80
2024/04/07 06:55:08;;;;;;;7.83;4.50;;;;;;;16.24;100.00;100681.39;5161172;56;1141050;-79
2024/04/07 07:00:14;;;;;;;7.23;4.60;;;;;;;16.50;100.00;100681.45;5140797;55;1141006;-78
2024/04/07 07:05:20;;;;;;;10.93;5.00;;;;;;;16.71;100.00;100673.17;5107810;56;1141375;-77
2024/04/07 07:10:25;;;;;;;13.20;4.90;;;;;;;16.93;100.00;100681.20;5183851;55;1142883;-77
2024/04/07 07:15:32;;;;;;;6.17;4.10;;;;;;;17.14;100.00;100674.48;5138375;56;1143159;-76
2024/04/07 07:20:37;;;;;;;6.77;4.27;;;;;;;17.35;100.00;100667.43;5155410;55;1140757;-77
2024/04/07 07:25:44;;;;;;;8.07;4.40;;;;;;;17.62;100.00;100670.39;5184770;55;1140810;-78
2024/04/07 07:30:50;;;;;;;5.05;3.85;;;;;;;17.86;100.00;100672.38;5090840;56;1140917;-78
2024/04/07 07:35:56;;;;;;;7.17;4.10;;;;;;;18.06;100.00;100669.73;5153087;55;1140969;-78
2024/04/07 07:41:01;;;;;;;8.13;3.50;;;;;;;18.25;100.00;100675.30;5164013;55;1141191;-77
2024/04/07 07:46:07;;;;;;;9.10;3.70;;;;;;;18.48;100.00;100687.56;5183680;55;1140710;-76
2024/04/07 07:51:13;;;;;;;3.63;3.07;;;;;;;18.68;100.00;100692.11;5139630;55;1141186;-76
2024/04/07 07:56:19;;;;;;;6.83;3.72;;;;;;;18.89;100.00;100692.45;5064642;56;1140590;-77
2024/04/07 08:01:25;;;;;;;7.44;3.56;;;;;;;19.05;100.00;100696.97;5183973;55;1140696;-77
2024/04/07 08:06:31;;;;;;;9.57;3.87;;;;;;;19.18;100.00;100699.45;5093572;55;1141433;-78
2024/04/07 08:11:37;;;;;;;6.30;3.85;;;;;;;19.35;100.00;100701.61;5096889;56;1140739;-77
2024/04/07 08:16:43;;;;;;;4.97;3.50;;;;;;;19.47;100.00;100701.56;5183003;55;1141052;-79
2024/04/07 08:21:49;;;;;;;7.28;3.75;;;;;;;19.66;100.00;100693.16;4957190;56;1140929;-80
2024/04/07 08:26:54;;;;;;;7.20;3.47;;;;;;;19.82;100.00;100690.91;5078219;55;1141023;-77
2024/04/07 08:32:00;;;;;;;4.65;2.95;;;;;;;19.99;100.00;100695.20;5078965;55;1140872;-78
2024/04/07 08:37:08;;;;;;;7.40;2.92;;;;;;;20.22;100.00;100682.30;5015558;57;1142467;-77
2024/04/07 08:42:16;;;;;;;9.95;5.55;;;;;;;20.44;100.00;100684.20;5149202;55;1141064;-79
2024/04/07 08:47:23;;;;;;;4.08;2.85;;;;;;;20.62;100.00;100670.47;5098604;55;1141042;-78
2024/04/07 08:52:30;;;;;;;6.67;3.47;;;;;;;20.84;100.00;100674.97;5127658;56;1140784;-78
2024/04/07 08:57:37;;;;;;;8.55;3.37;;;;;;;21.04;100.00;100673.45;5004599;57;1140797;-78
2024/04/07 09:02:44;;;;;;;2.65;2.10;;;;;;;21.28;100.00;100675.58;5158187;55;1141173;-77
2024/04/07 09:07:50;;;;;;;5.60;2.40;;;;;;;21.51;100.00;100684.41;5097306;55;1140917;-78
2024/04/07 09:12:55;;;;;;;8.00;2.22;;;;;;;21.71;100.00;100683.31;5161331;55;1140680;-77
2024/04/07 09:18:01;;;;;;;2.52;2.00;;;;;;;21.91;100.00;100667.41;5152188;55;1140975;-79
2024/04/07 09:23:07;;;;;;;7.15;2.80;;;;;;;22.08;100.00;100667.03;5089272;55;1140802;-80
2024/04/07 09:28:13;;;;;;;3.70;3.12;;;;;;;22.25;100.00;100667.63;5098045;56;1140846;-78
2024/04/07 09:33:21;;;;;;;6.10;2.20;;;;;;;22.44;100.00;100662.97;5086371;56;1140905;-77
2024/04/07 09:38:26;;;;;;;2.17;1.98;;;;;;;22.55;100.00;100660.27;5164098;56;1140718;-79
2024/04/07 09:43:33;;;;;;;4.85;3.02;;;;;;;22.69;100.00;100649.91;5184401;55;1140762;-79
2024/04/07 09:48:40;;;;;;;4.35;2.40;;;;;;;22.82;100.00;100643.81;5164098;55;1141055;-77
2024/04/07 09:54:04;;;;;;;2.52;2.33;;;;;;;22.94;100.00;100649.50;5025515;57;1140871;-79
2024/04/07 09:59:10;;;;;;;2.13;1.73;;;;;;;23.04;100.00;100654.06;5164595;55;1140778;-78
2024/04/07 10:04:17;;;;;;;7.47;2.67;;;;;;;23.14;100.00;100638.34;5159633;55;1140959;-77
2024/04/07 10:09:24;;;;;;;3.58;2.52;;;;;;;23.24;100.00;100630.72;5163800;55;1141057;-78
2024/04/07 10:14:41;;;;;;;2.20;2.00;;;;;;;23.37;100.00;100634.87;5160656;55;1141173;-77
2024/04/07 10:19:50;;;;;;;1.75;1.60;;;;;;;23.60;100.00;100649.95;5103282;55;1140873;-78
2024/04/07 10:24:58;;;;;;;7.65;2.12;;;;;;;23.76;100.00;100632.05;5078923;55;1140960;-78
2024/04/07 10:30:07;;;;;;;8.18;2.45;;;;;;;23.89;100.00;100620.45;5000639;57;1140937;-77
2024/04/07 10:35:15;;;;;;;4.47;1.90;;;;;;;23.99;100.00;100635.23;5164562;56;1140675;-77
2024/04/07 10:40:21;;;;;;;6.12;2.35;;;;;;;24.15;100.00;100648.88;5090696;55;1141051;-79
2024/04/07 10:45:27;;;;;;;3.80;2.20;;;;;;;24.30;100.00;100637.41;5117699;55;1140918;-76
2024/04/07 10:50:32;;;;;;;2.45;1.55;;;;;;;24.40;96.75;100636.51;5164024;55;1140685;-79
2024/04/07 10:55:40;;;;;;;8.13;2.50;;;;;;;24.56;96.44;100634.44;5185304;55;1138829;-82
2024/04/07 11:00:46;;;;;;;6.95;2.52;;;;;;;24.79;92.25;100634.84;5108401;56;1138679;-84
2024/04/07 11:05:53;;;;;;;3.10;2.30;;;;;;;24.95;96.27;100638.51;5108678;56;1138710;-82
2024/04/07 11:11:04;;;;;;;2.30;1.95;;;;;;;25.05;93.12;100628.62;5163643;55;1145418;-82
2024/04/07 11:16:11;;;;;;;2.52;2.25;;;;;;;25.12;91.51;100628.91;5143178;55;1138845;-81
2024/04/07 11:21:18;;;;;;;1.90;1.80;;;;;;;25.11;90.06;100641.30;5163643;56;1138568;-81
2024/04/07 11:26:24;;;;;;;3.10;2.02;;;;;;;25.16;93.74;100631.51;5128613;55;1138875;-82
2024/04/07 11:31:31;;;;;;;2.50;2.30;;;;;;;25.36;95.42;100638.20;5098670;56;1138747;-82
2024/04/07 11:36:38;;;;;;;2.75;1.98;;;;;;;25.61;91.26;100629.39;5069830;55;1139108;-81
2024/04/07 11:41:44;;;;;;;5.37;1.92;;;;;;;25.77;89.23;100626.23;4975808;57;1138902;-83
2024/04/07 11:46:50;;;;;;;2.70;1.90;;;;;;;25.96;89.51;100624.48;5184165;55;1138863;-88
2024/04/07 11:51:55;;;;;;;2.55;1.92;;;;;;;26.10;86.63;100618.77;5015378;57;1138552;-84
2024/04/07 11:57:01;;;;;;;7.78;1.60;;;;;;;26.19;70.54;100609.83;5163551;55;1138776;-85
2024/04/07 12:02:08;;;;;;;7.23;4.40;;;;;;;26.30;69.03;100602.89;5100614;55;1138735;-87
2024/04/07 12:07:14;;;;;;;2.25;1.40;;;;;;;26.36;67.91;100605.57;5180057;56;1138634;-85
2024/04/07 12:12:20;;;;;;;3.60;2.05;;;;;;;26.40;65.36;100586.98;5082043;56;1138802;-84
2024/04/07 12:17:25;;;;;;;1.67;1.57;;;;;;;26.59;62.74;100581.37;5103443;55;1138537;-85
2024/04/07 12:22:38;;;;;;;36.40;12.05;;;;;;;26.63;57.09;100585.83;5161112;55;1138573;-84
2024/04/07 12:27:44;;;;;;;5.83;3.65;;;;;;;26.61;56.39;100584.70;5163448;56;1142804;-85
2024/04/07 12:32:50;;;;;;;5.87;1.40;;;;;;;26.62;59.66;100575.50;5164047;55;1138543;-85
2024/04/07 12:37:55;;;;;;;1.85;1.70;;;;;;;26.62;55.38;100582.81;5145349;55;1138799;-85
2024/04/07 12:43:01;;;;;;;1.92;1.67;;;;;;;26.55;56.91;100582.89;5078636;56;1138881;-85
2024/04/07 12:48:22;;;;;;;2.05;1.80;;;;;;;26.60;58.45;100581.67;5078665;56;1138532;-84
2024/04/07 12:53:28;;;;;;;1.40;1.30;;;;;;;26.48;56.13;100584.81;5094005;56;1139406;-87
2024/04/07 12:58:33;;;;;;;4.12;1.80;;;;;;;26.40;54.75;100585.10;5136941;55;1138608;-85
2024/04/07 13:03:39;;;;;;;3.37;1.60;;;;;;;26.24;55.84;100586.97;5150255;55;1139034;-86
2024/04/07 13:08:45;;;;;;;2.62;1.65;;;;;;;26.05;55.52;100579.80;5184076;55;1138891;-85
2024/04/07 13:13:54;;;;;;;1.57;1.50;;;;;;;25.93;55.53;100571.53;5162632;55;1138834;-89
2024/04/07 13:19:00;;;;;;;2.02;1.50;;;;;;;25.89;56.75;100577.91;5142302;55;1138862;-88
2024/04/07 13:24:06;;;;;;;2.00;1.90;;;;;;;25.91;57.78;100585.30;5080003;56;1138539;-81
2024/04/07 13:29:12;;;;;;;2.85;1.67;;;;;;;25.95;57.48;100588.41;5172552;56;1138885;-80
2024/04/07 13:34:18;;;;;;;9.65;1.87;;;;;;;25.99;60.47;100597.74;5144692;56;1138692;-81
2024/04/07 13:39:23;;;;;;;2.50;1.67;;;;;;;26.02;60.15;100605.45;5097161;55;1138550;-81
2024/04/07 13:44:29;;;;;;;7.00;2.33;;;;;;;26.16;59.72;100594.82;5172568;56;1139022;-82
2024/04/07 13:49:35;;;;;;;4.33;1.57;;;;;;;26.31;59.50;100591.83;5157240;55;1138909;-82
2024/04/07 13:54:41;;;;;;;3.50;2.10;;;;;;;26.39;58.76;100596.17;5140043;55;1138770;-82
2024/04/07 13:59:46;;;;;;;6.25;2.00;;;;;;;26.44;60.75;100585.47;5182278;55;1138374;-82
2024/04/07 14:04:52;;;;;;;3.10;2.07;;;;;;;26.47;59.14;100592.64;5079526;56;1148071;-82
2024/04/07 14:09:58;;;;;;;2.65;1.67;;;;;;;26.45;61.52;100591.20;5074713;56;1138897;-82
2024/04/07 14:15:05;;;;;;;5.42;1.80;;;;;;;26.54;60.23;100588.01;5076011;55;1139169;-82
2024/04/07 14:20:11;;;;;;;6.25;1.95;;;;;;;26.54;60.23;100588.01;5099377;56;1138838;-82
2024/04/07 14:25:18;;;;;;;5.42;2.10;;;;;;;26.53;61.52;100590.41;5149330;55;1138481;-82
2024/04/07 14:30:24;;;;;;;5.92;2.50;;;;;;;26.57;59.97;100588.92;5148515;55;1138693;-82
2024/04/07 14:35:31;;;;;;;3.58;2.15;;;;;;;26.57;60.05;100598.95;5131331;55;1138650;-82
2024/04/07 14:40:36;;;;;;;2.80;2.40;;;;;;;26.54;59.12;100587.17;5146591;55;1139094;-82
2024/04/07 14:45:42;;;;;;;2.50;2.30;;;;;;;26.54;60.26;100585.82;5161033;55;1138813;-83
2024/04/07 14:50:48;;;;;;;7.30;1.92;;;;;;;26.57;59.59;100595.70;5099404;55;1138784;-83
2024/04/07 14:56:01;;;;;;;8.00;2.00;;;;;;;26.62;59.91;100591.78;5158044;55;1138536;-83
2024/04/07 15:01:07;;;;;;;3.72;1.92;;;;;;;26.62;58.76;100588.23;5132718;55;1138801;-83
2024/04/07 15:06:15;;;;;;;3.17;1.87;;;;;;;26.58;60.46;100595.19;5099322;55;1138672;-81
2024/04/07 15:11:22;;;;;;;3.70;2.15;;;;;;;26.51;60.01;100594.39;5112063;55;1138894;-79
2024/04/07 15:16:28;;;;;;;5.85;1.92;;;;;;;26.32;61.16;100593.49;5164789;55;1138768;-79
2024/04/07 15:21:34;;;;;;;4.78;1.72;;;;;;;26.14;61.54;100600.98;5092870;55;1138887;-79
2024/04/07 15:26:42;;;;;;;1.82;1.70;;;;;;;26.03;63.06;100594.91;5141404;55;1138770;-80
2024/04/07 15:31:48;;;;;;;6.10;2.00;;;;;;;25.95;63.98;100596.55;5147659;55;1138778;-80
2024/04/07 15:36:55;;;;;;;1.95;1.82;;;;;;;25.83;63.70;100599.61;5095540;55;1138480;-79
2024/04/07 15:42:01;;;;;;;3.60;2.30;;;;;;;25.70;64.02;100591.55;5145242;55;1138768;-82
2024/04/07 15:47:07;;;;;;;4.33;1.80;;;;;;;25.61;64.01;100579.28;5183980;56;1138443;-81
2024/04/07 15:52:12;;;;;;;4.67;2.45;;;;;;;25.55;64.33;100575.02;5163818;55;1138341;-82
2024/04/07 15:57:18;;;;;;;7.30;2.25;;;;;;;25.54;64.64;100573.88;5164003;55;1138753;-80
2024/04/07 16:02:24;;;;;;;2.52;1.82;;;;;;;25.52;64.93;100569.20;5183966;55;1138912;-80
2024/04/07 16:07:29;;;;;;;3.25;2.30;;;;;;;25.50;65.41;100563.20;5088510;56;1138887;-79
2024/04/07 16:12:35;;;;;;;2.20;2.00;;;;;;;25.46;65.51;100550.59;5164744;55;1138883;-80
2024/04/07 16:17:41;;;;;;;9.00;1.98;;;;;;;25.51;66.33;100554.03;5124979;55;1138840;-80
2024/04/07 16:22:47;;;;;;;4.92;2.40;;;;;;;25.55;66.59;100544.40;5188796;54;1138765;-79
2024/04/07 16:27:55;;;;;;;9.00;2.87;;;;;;;25.57;66.62;100543.14;5201568;54;1138547;-81
2024/04/07 16:33:01;;;;;;;7.80;2.20;;;;;;;25.56;65.96;100561.79;5164189;56;1138859;-80
2024/04/07 16:38:06;;;;;;;5.50;2.90;;;;;;;25.50;65.17;100566.73;5179195;55;1138612;-83
2024/04/07 16:43:12;;;;;;;4.67;3.02;;;;;;;25.43;65.92;100569.15;4946849;57;1138850;-80
2024/04/07 16:48:20;;;;;;;11.23;5.57;;;;;;;25.32;67.16;100576.08;5134128;56;1138428;-81
2024/04/07 16:53:25;;;;;;;9.58;5.60;;;;;;;25.16;67.24;100595.48;5177932;55;1140873;-80
2024/04/07 16:58:31;;;;;;;15.58;8.65;;;;;;;25.00;68.12;100597.30;5020095;57;1138482;-81
2024/04/07 17:03:37;;;;;;;12.65;4.75;;;;;;;24.88;68.79;100595.20;5150877;55;1141066;-82
2024/04/07 17:08:44;;;;;;;9.52;4.74;;;;;;;24.82;70.22;100596.03;5116455;55;1140965;-82
2024/04/07 17:14:02;;;;;;;17.12;4.30;;;;;;;24.74;70.86;100604.38;5078667;55;1138924;-81
2024/04/07 17:19:09;;;;;;;6.45;3.40;;;;;;;24.60;72.06;100610.80;5151938;55;1140864;-82
2024/04/07 17:24:15;;;;;;;12.23;6.50;;;;;;;24.48;73.17;100609.77;5083469;56;1139000;-82
2024/04/07 17:29:21;;;;;;;18.98;11.83;;;;;;;24.44;74.30;100614.75;5120992;56;1140726;-82
2024/04/07 17:34:27;;;;;;;23.12;11.70;;;;;;;24.38;74.96;100616.13;5084651;56;1142936;-82
2024/04/07 17:39:33;;;;;;;27.60;12.80;;;;;;;24.26;75.25;100621.31;5029099;56;1142790;-83
2024/04/07 17:44:39;;;;;;;22.25;11.40;;;;;;;24.16;76.35;100630.28;5123561;56;1143125;-83
2024/04/07 17:49:45;;;;;;;93.70;48.13;;;;;;;24.03;76.92;100635.66;5077266;56;1143161;-82
2024/04/07 17:54:51;;;;;;;41.70;12.35;;;;;;;23.83;77.70;100641.83;5023786;56;1143321;-82
2024/04/07 17:59:58;;;;;;;47.63;11.03;;;;;;;23.57;78.32;100630.92;5048855;56;1142837;-81
2024/04/07 18:05:04;;;;;;;43.15;11.83;;;;;;;23.54;79.41;100652.09;5016258;56;1143021;-81
2024/04/07 18:10:10;;;;;;;23.98;10.50;;;;;;;23.36;80.10;100653.95;5181974;55;1142918;-81
2024/04/07 18:15:16;;;;;;;23.42;10.15;;;;;;;23.22;80.73;100661.66;5163122;55;1143197;-82
2024/04/07 18:20:21;;;;;;;17.55;10.68;;;;;;;22.96;80.28;100667.67;5164225;55;1143086;-83
2024/04/07 18:25:28;;;;;;;24.55;10.72;;;;;;;22.76;81.19;100676.43;5040626;57;1143046;-82
2024/04/07 18:30:33;;;;;;;19.65;10.35;;;;;;;22.63;82.46;100670.06;5167897;55;1142961;-82
2024/04/07 18:35:39;;;;;;;54.33;16.48;;;;;;;22.53;83.13;100677.65;5248677;54;1142881;-82
2024/04/07 18:40:45;;;;;;;24.95;11.15;;;;;;;22.35;83.40;100670.00;5171345;55;1142803;-84
2024/04/07 18:45:51;;;;;;;24.60;11.88;;;;;;;22.25;83.56;100674.88;5021126;57;1143318;-82
2024/04/07 18:51:00;;;;;;;21.37;10.97;;;;;;;22.12;83.68;100667.50;5118324;55;1143023;-82
2024/04/07 18:56:06;;;;;;;28.90;13.13;;;;;;;21.83;83.33;100678.30;5100138;56;1143144;-82
2024/04/07 19:01:18;;;;;;;71.67;36.50;;;;;;;21.55;85.08;100677.61;5183027;55;1142799;-81
2024/04/07 19:06:24;;;;;;;63.23;33.70;;;;;;;21.29;84.96;100692.05;5109734;55;1143040;-80
2024/04/07 19:11:32;;;;;;;59.75;30.32;;;;;;;21.15;86.48;100695.52;5001977;57;1142723;-81
2024/04/07 19:16:38;;;;;;;48.58;29.18;;;;;;;21.02;87.26;100693.47;5183217;55;1143096;-83
2024/04/07 19:21:44;;;;;;;53.05;31.48;;;;;;;20.99;88.48;100700.55;5163260;55;1142639;-83
2024/04/07 19:26:50;;;;;;;57.98;33.23;;;;;;;20.90;89.48;100705.69;5052252;56;1143186;-82
2024/04/07 19:31:56;;;;;;;54.17;33.37;;;;;;;20.90;90.67;100698.45;5184400;55;1142745;-80
2024/04/07 19:37:01;;;;;;;56.57;31.83;;;;;;;20.93;90.80;100701.30;5163614;55;1143233;-82
2024/04/07 19:42:17;;;;;;;48.35;28.90;;;;;;;20.84;90.84;100699.67;5154776;55;1143261;-84
2024/04/07 19:47:15;;;;;;;62.55;38.45;;;;;;;20.81;91.00;100704.06;5182852;55;1143275;-81
2024/04/07 19:52:21;;;;;;;43.80;26.82;;;;;;;20.75;91.07;100695.39;5164050;55;1142885;-82
2024/04/07 19:57:26;;;;;;;39.25;22.25;;;;;;;20.65;91.56;100689.73;5164287;55;1142976;-82
2024/04/07 20:02:32;;;;;;;34.55;19.00;;;;;;;20.50;91.20;100683.47;5066189;56;1142950;-82
2024/04/07 20:07:39;;;;;;;36.48;20.95;;;;;;;20.40;91.57;100692.29;5129149;55;1143233;-81
2024/04/07 20:12:45;;;;;;;50.60;24.67;;;;;;;20.35;92.18;100697.31;5141348;55;1143194;-80
2024/04/07 20:17:51;;;;;;;42.13;25.10;;;;;;;20.31;93.16;100695.52;5165422;55;1142822;-82
2024/04/07 20:22:57;;;;;;;44.33;23.10;;;;;;;20.24;92.69;100697.23;5159569;55;1142925;-80
2024/04/07 20:28:03;;;;;;;48.45;23.73;;;;;;;20.18;93.38;100694.39;5108046;56;1142999;-80
2024/04/07 20:33:09;;;;;;;108.32;49.95;;;;;;;20.01;92.86;100703.88;5156296;55;1143027;-79
2024/04/07 20:38:15;;;;;;;72.42;34.98;;;;;;;19.90;93.23;100688.17;5030169;57;1144976;-80
2024/04/07 20:43:20;;;;;;;64.25;30.15;;;;;;;19.83;94.13;100684.53;5077735;56;1142770;-80
2024/04/07 20:48:26;;;;;;;57.30;28.20;;;;;;;19.87;95.11;100697.08;5085189;55;1142782;-80
2024/04/07 20:53:32;;;;;;;62.95;34.83;;;;;;;19.91;95.55;100699.75;5181542;55;1142547;-79
2024/04/07 20:58:38;;;;;;;44.38;24.80;;;;;;;19.76;94.02;100707.70;5100538;55;1143021;-80
2024/04/07 21:03:44;;;;;;;35.40;20.90;;;;;;;19.65;95.18;100702.72;5077710;56;1142860;-80
2024/04/07 21:08:49;;;;;;;34.53;20.75;;;;;;;19.50;94.87;100709.81;5098777;55;1142833;-79
2024/04/07 21:13:55;;;;;;;35.10;21.95;;;;;;;19.35;95.33;100719.03;5082928;56;1143112;-79
2024/04/07 21:19:01;;;;;;;51.68;24.72;;;;;;;19.29;96.51;100710.32;5112650;55;1143043;-80
2024/04/07 21:24:07;;;;;;;46.47;23.83;;;;;;;19.15;95.79;100711.86;5078012;56;1142901;-79
2024/04/07 21:29:13;;;;;;;46.08;21.42;;;;;;;18.88;96.14;100702.34;5171165;56;1142896;-81
2024/04/07 21:34:19;;;;;;;36.75;17.80;;;;;;;18.85;98.31;100701.83;5090956;55;1142725;-79
2024/04/07 21:39:26;;;;;;;39.05;18.62;;;;;;;18.91;98.88;100702.51;4996008;57;1142853;-78
2024/04/07 21:44:32;;;;;;;26.30;15.28;;;;;;;18.91;99.51;100706.03;5112015;55;1142496;-79
2024/04/07 21:49:37;;;;;;;24.15;13.35;;;;;;;18.93;99.82;100701.84;5163837;55;1142937;-80
2024/04/07 21:54:43;;;;;;;27.30;12.95;;;;;;;18.81;98.77;100692.44;5103747;55;1142598;-81
2024/04/07 21:59:50;;;;;;;31.05;13.58;;;;;;;18.66;98.82;100690.94;5106049;56;1143049;-80
2024/04/07 22:04:56;;;;;;;19.48;10.53;;;;;;;18.53;99.20;100691.91;4935756;58;1142951;-79
2024/04/07 22:10:02;;;;;;;12.13;7.08;;;;;;;18.38;99.67;100695.73;5074600;56;1142958;-79
2024/04/07 22:15:08;;;;;;;6.13;4.20;;;;;;;18.36;100.00;100683.52;5102194;55;1141108;-78
2024/04/07 22:20:14;;;;;;;6.92;5.22;;;;;;;18.36;100.00;100678.16;5184732;55;1140735;-81
2024/04/07 22:25:20;;;;;;;10.65;4.58;;;;;;;18.33;100.00;100673.16;5164400;55;1140582;-81
2024/04/07 22:30:25;;;;;;;7.37;4.22;;;;;;;18.33;100.00;100661.11;5094301;55;1142715;-80
2024/04/07 22:35:31;;;;;;;8.03;4.42;;;;;;;18.09;99.68;100657.87;5100015;55;1140741;-79
2024/04/07 22:40:37;;;;;;;12.40;5.65;;;;;;;18.03;100.00;100663.36;5083912;55;1138505;-79
2024/04/07 22:45:43;;;;;;;13.50;6.97;;;;;;;18.07;100.00;100673.25;5164009;55;1142717;-80
2024/04/07 22:50:48;;;;;;;10.50;5.08;;;;;;;18.00;100.00;100670.41;5147418;56;1142833;-80
2024/04/07 22:55:55;;;;;;;13.50;4.93;;;;;;;17.99;100.00;100666.05;5079115;56;1142648;-80